sensor_id;sensor_type;location;lat;lon;timestamp;pressure;altitude;pressure_sealevel;temperature
12430;BMP280;6279;42.192;24.326;2023-06-26T00:02:09;98559.81;;;23.52
12430;BMP280;6279;42.192;24.326;2023-06-26T00:04:34;98568.56;;;23.52
12430;BMP280;6279;42.192;24.326;2023-06-26T00:07:01;98565.13;;;23.52
12430;BMP280;6279;42.192;24.326;2023-06-26T00:09:26;98553.47;;;23.58
12430;BMP280;6279;42.192;24.326;2023-06-26T00:11:52;98557.22;;;23.62
12430;BMP280;6279;42.192;24.326;2023-06-26T00:14:17;98558.28;;;23.66
12430;BMP280;6279;42.192;24.326;2023-06-26T00:16:46;98561.41;;;23.58
12430;BMP280;6279;42.192;24.326;2023-06-26T00:19:11;98568.31;;;23.59
12430;BMP280;6279;42.192;24.326;2023-06-26T00:21:37;98566.78;;;23.63
12430;BMP280;6279;42.192;24.326;2023-06-26T00:24:02;98568.31;;;23.54
12430;BMP280;6279;42.192;24.326;2023-06-26T00:26:28;98570.94;;;23.49
12430;BMP280;6279;42.192;24.326;2023-06-26T00:28:53;98574.88;;;23.42
12430;BMP280;6279;42.192;24.326;2023-06-26T00:31:18;98570.88;;;23.39
12430;BMP280;6279;42.192;24.326;2023-06-26T00:33:44;98572.00;;;23.43
12430;BMP280;6279;42.192;24.326;2023-06-26T00:36:09;98571.47;;;23.46
12430;BMP280;6279;42.192;24.326;2023-06-26T00:38:35;98572.03;;;23.53
12430;BMP280;6279;42.192;24.326;2023-06-26T00:41:00;98578.38;;;23.47
12430;BMP280;6279;42.192;24.326;2023-06-26T00:43:25;98569.81;;;23.35
12430;BMP280;6279;42.192;24.326;2023-06-26T00:45:51;98561.00;;;23.30
12430;BMP280;6279;42.192;24.326;2023-06-26T00:48:17;98562.16;;;23.44
12430;BMP280;6279;42.192;24.326;2023-06-26T00:50:42;98570.44;;;23.52
12430;BMP280;6279;42.192;24.326;2023-06-26T00:53:09;98566.44;;;23.45
12430;BMP280;6279;42.192;24.326;2023-06-26T00:55:36;98572.53;;;23.45
12430;BMP280;6279;42.192;24.326;2023-06-26T00:58:01;98561.91;;;23.45
12430;BMP280;6279;42.192;24.326;2023-06-26T01:00:27;98558.16;;;23.41
12430;BMP280;6279;42.192;24.326;2023-06-26T01:02:52;98561.66;;;23.47
12430;BMP280;6279;42.192;24.326;2023-06-26T01:05:18;98565.09;;;23.42
12430;BMP280;6279;42.192;24.326;2023-06-26T01:07:49;98561.91;;;23.45
12430;BMP280;6279;42.192;24.326;2023-06-26T01:10:15;98560.84;;;23.46
12430;BMP280;6279;42.192;24.326;2023-06-26T01:12:40;98566.97;;;23.52
12430;BMP280;6279;42.192;24.326;2023-06-26T01:15:06;98557.69;;;23.49
12430;BMP280;6279;42.192;24.326;2023-06-26T01:17:32;98556.63;;;23.55
12430;BMP280;6279;42.192;24.326;2023-06-26T01:19:59;98555.56;;;23.56
12430;BMP280;6279;42.192;24.326;2023-06-26T01:27:26;98556.16;;;23.63
12430;BMP280;6279;42.192;24.326;2023-06-26T01:29:53;98565.94;;;23.57
12430;BMP280;6279;42.192;24.326;2023-06-26T01:32:19;98557.22;;;23.62
12430;BMP280;6279;42.192;24.326;2023-06-26T01:34:45;98557.97;;;23.57
12430;BMP280;6279;42.192;24.326;2023-06-26T01:37:10;98554.75;;;23.51
12430;BMP280;6279;42.192;24.326;2023-06-26T01:39:36;98551.31;;;23.55
12430;BMP280;6279;42.192;24.326;2023-06-26T01:42:02;98549.72;;;23.54
12430;BMP280;6279;42.192;24.326;2023-06-26T01:44:29;98557.13;;;23.42
12430;BMP280;6279;42.192;24.326;2023-06-26T01:47:02;98551.59;;;23.53
12430;BMP280;6279;42.192;24.326;2023-06-26T01:57:38;98549.78;;;23.69
12430;BMP280;6279;42.192;24.326;2023-06-26T02:00:05;98545.03;;;23.71
12430;BMP280;6279;42.192;24.326;2023-06-26T02:02:32;98547.41;;;23.72
12430;BMP280;6279;42.192;24.326;2023-06-26T02:04:58;98543.94;;;23.62
12430;BMP280;6279;42.192;24.326;2023-06-26T02:07:23;98551.59;;;23.58
12430;BMP280;6279;42.192;24.326;2023-06-26T02:09:48;98551.84;;;23.57
12430;BMP280;6279;42.192;24.326;2023-06-26T02:12:14;98549.75;;;23.59
12430;BMP280;6279;42.192;24.326;2023-06-26T02:14:39;98545.47;;;23.53
12430;BMP280;6279;42.192;24.326;2023-06-26T02:17:05;98546.00;;;23.50
12430;BMP280;6279;42.192;24.326;2023-06-26T02:19:30;98538.31;;;23.53
12430;BMP280;6279;42.192;24.326;2023-06-26T02:21:55;98538.56;;;23.52
12430;BMP280;6279;42.192;24.326;2023-06-26T02:24:21;98540.44;;;23.56
12430;BMP280;6279;42.192;24.326;2023-06-26T02:26:46;98548.66;;;23.45
12430;BMP280;6279;42.192;24.326;2023-06-26T02:29:12;98541.44;;;23.41
12430;BMP280;6279;42.192;24.326;2023-06-26T02:31:38;98548.06;;;23.38
12430;BMP280;6279;42.192;24.326;2023-06-26T02:34:04;98548.34;;;23.42
12430;BMP280;6279;42.192;24.326;2023-06-26T02:36:29;98539.84;;;23.40
12430;BMP280;6279;42.192;24.326;2023-06-26T02:38:55;98538.44;;;23.32
12430;BMP280;6279;42.192;24.326;2023-06-26T02:41:20;98534.84;;;23.43
12430;BMP280;6279;42.192;24.326;2023-06-26T02:43:46;98542.81;;;23.48
12430;BMP280;6279;42.192;24.326;2023-06-26T02:46:11;98549.41;;;23.41
12430;BMP280;6279;42.192;24.326;2023-06-26T02:48:36;98544.41;;;23.49
12430;BMP280;6279;42.192;24.326;2023-06-26T02:51:02;98541.50;;;23.55
12430;BMP280;6279;42.192;24.326;2023-06-26T02:53:27;98535.19;;;23.61
12430;BMP280;6279;42.192;24.326;2023-06-26T02:55:53;98537.84;;;23.71
12430;BMP280;6279;42.192;24.326;2023-06-26T02:58:18;98532.00;;;23.64
12430;BMP280;6279;42.192;24.326;2023-06-26T03:00:44;98531.75;;;23.71
12430;BMP280;6279;42.192;24.326;2023-06-26T03:03:09;98543.97;;;23.72
12430;BMP280;6279;42.192;24.326;2023-06-26T03:05:36;98545.03;;;23.71
12430;BMP280;6279;42.192;24.326;2023-06-26T03:08:02;98541.28;;;23.67
12430;BMP280;6279;42.192;24.326;2023-06-26T03:10:28;98540.78;;;23.70
12430;BMP280;6279;42.192;24.326;2023-06-26T03:12:53;98546.63;;;23.76
12430;BMP280;6279;42.192;24.326;2023-06-26T03:15:19;98555.16;;;23.78
12430;BMP280;6279;42.192;24.326;2023-06-26T03:17:44;98553.78;;;23.71
12430;BMP280;6279;42.192;24.326;2023-06-26T03:20:10;98548.78;;;23.79
12430;BMP280;6279;42.192;24.326;2023-06-26T03:22:36;98553.31;;;23.84
12430;BMP280;6279;42.192;24.326;2023-06-26T03:25:02;98547.19;;;23.83
12430;BMP280;6279;42.192;24.326;2023-06-26T03:27:28;98551.44;;;23.84
12430;BMP280;6279;42.192;24.326;2023-06-26T03:29:53;98549.34;;;23.91
12430;BMP280;6279;42.192;24.326;2023-06-26T03:32:19;98552.03;;;23.96
12430;BMP280;6279;42.192;24.326;2023-06-26T03:34:44;98555.56;;;24.16
12430;BMP280;6279;42.192;24.326;2023-06-26T03:37:09;98547.84;;;24.24
12430;BMP280;6279;42.192;24.326;2023-06-26T03:39:35;98557.44;;;24.20
12430;BMP280;6279;42.192;24.326;2023-06-26T03:42:00;98557.44;;;24.35
12430;BMP280;6279;42.192;24.326;2023-06-26T03:44:27;98563.84;;;24.44
12430;BMP280;6279;42.192;24.326;2023-06-26T03:46:52;98554.81;;;24.60
12430;BMP280;6279;42.192;24.326;2023-06-26T03:49:18;98553.78;;;24.70
12430;BMP280;6279;42.192;24.326;2023-06-26T03:51:44;98558.81;;;24.77
12430;BMP280;6279;42.192;24.326;2023-06-26T03:54:10;98565.75;;;24.73
12430;BMP280;6279;42.192;24.326;2023-06-26T03:56:35;98559.38;;;24.69
12430;BMP280;6279;42.192;24.326;2023-06-26T03:59:01;98558.53;;;24.59
12430;BMP280;6279;42.192;24.326;2023-06-26T04:01:26;98558.00;;;24.62
12430;BMP280;6279;42.192;24.326;2023-06-26T04:03:52;98561.22;;;24.73
12430;BMP280;6279;42.192;24.326;2023-06-26T04:06:18;98558.84;;;24.72
12430;BMP280;6279;42.192;24.326;2023-06-26T04:08:43;98557.50;;;24.74
12430;BMP280;6279;42.192;24.326;2023-06-26T04:11:09;98555.91;;;24.88
12430;BMP280;6279;42.192;24.326;2023-06-26T04:13:34;98563.06;;;24.97
12430;BMP280;6279;42.192;24.326;2023-06-26T04:15:59;98565.47;;;24.94
12430;BMP280;6279;42.192;24.326;2023-06-26T04:18:25;98563.31;;;25.10
12430;BMP280;6279;42.192;24.326;2023-06-26T04:21:07;98562.50;;;25.20
12430;BMP280;6279;42.192;24.326;2023-06-26T04:23:33;98569.66;;;25.29
12430;BMP280;6279;42.192;24.326;2023-06-26T04:25:59;98563.28;;;25.30
12430;BMP280;6279;42.192;24.326;2023-06-26T04:28:24;98560.09;;;25.28
12430;BMP280;6279;42.192;24.326;2023-06-26T04:30:50;98571.53;;;25.38
12430;BMP280;6279;42.192;24.326;2023-06-26T04:33:15;98573.13;;;25.29
12430;BMP280;6279;42.192;24.326;2023-06-26T04:35:41;98564.34;;;25.34
12430;BMP280;6279;42.192;24.326;2023-06-26T04:38:16;98567.00;;;25.19
12430;BMP280;6279;42.192;24.326;2023-06-26T04:40:42;98567.31;;;25.23
12430;BMP280;6279;42.192;24.326;2023-06-26T04:43:07;98557.44;;;25.28
12430;BMP280;6279;42.192;24.326;2023-06-26T04:45:33;98568.59;;;25.45
12430;BMP280;6279;42.192;24.326;2023-06-26T04:47:58;98560.47;;;25.84
12430;BMP280;6279;42.192;24.326;2023-06-26T04:50:25;98565.13;;;26.16
12430;BMP280;6279;42.192;24.326;2023-06-26T04:52:50;98560.06;;;26.52
12430;BMP280;6279;42.192;24.326;2023-06-26T04:55:16;98568.00;;;26.67
12430;BMP280;6279;42.192;24.326;2023-06-26T04:57:41;98566.13;;;26.67
12430;BMP280;6279;42.192;24.326;2023-06-26T05:00:07;98571.34;;;26.82
12430;BMP280;6279;42.192;24.326;2023-06-26T05:02:36;98569.00;;;27.36
12430;BMP280;6279;42.192;24.326;2023-06-26T05:05:01;98572.09;;;27.43
12430;BMP280;6279;42.192;24.326;2023-06-26T05:07:27;98572.69;;;27.40
12430;BMP280;6279;42.192;24.326;2023-06-26T05:09:52;98581.75;;;27.11
12430;BMP280;6279;42.192;24.326;2023-06-26T05:12:17;98580.09;;;27.15
12430;BMP280;6279;42.192;24.326;2023-06-26T05:14:43;98574.50;;;27.17
12430;BMP280;6279;42.192;24.326;2023-06-26T05:17:08;98584.13;;;27.13
12430;BMP280;6279;42.192;24.326;2023-06-26T05:19:34;98588.28;;;26.96
12430;BMP280;6279;42.192;24.326;2023-06-26T05:22:00;98582.25;;;26.85
12430;BMP280;6279;42.192;24.326;2023-06-26T05:24:30;98590.16;;;27.00
12430;BMP280;6279;42.192;24.326;2023-06-26T05:26:56;98582.59;;;27.07
12430;BMP280;6279;42.192;24.326;2023-06-26T05:29:21;98577.44;;;27.20
12430;BMP280;6279;42.192;24.326;2023-06-26T05:31:49;98588.94;;;27.44
12430;BMP280;6279;42.192;24.326;2023-06-26T05:34:15;98593.84;;;27.83
12430;BMP280;6279;42.192;24.326;2023-06-26T05:36:41;98587.81;;;27.96
12430;BMP280;6279;42.192;24.326;2023-06-26T05:39:09;98597.25;;;28.29
12430;BMP280;6279;42.192;24.326;2023-06-26T05:41:34;98599.22;;;28.42
12430;BMP280;6279;42.192;24.326;2023-06-26T05:44:00;98600.84;;;28.43
12430;BMP280;6279;42.192;24.326;2023-06-26T05:46:25;98602.78;;;28.56
12430;BMP280;6279;42.192;24.326;2023-06-26T05:48:50;98599.38;;;28.50
12430;BMP280;6279;42.192;24.326;2023-06-26T05:51:16;98591.94;;;28.65
12430;BMP280;6279;42.192;24.326;2023-06-26T05:53:42;98603.75;;;28.78
12430;BMP280;6279;42.192;24.326;2023-06-26T05:56:08;98590.91;;;28.98
12430;BMP280;6279;42.192;24.326;2023-06-26T05:58:34;98600.09;;;29.23
12430;BMP280;6279;42.192;24.326;2023-06-26T06:00:59;98601.47;;;29.52
12430;BMP280;6279;42.192;24.326;2023-06-26T06:03:25;98593.50;;;29.60
12430;BMP280;6279;42.192;24.326;2023-06-26T06:05:50;98597.09;;;30.22
12430;BMP280;6279;42.192;24.326;2023-06-26T06:08:15;98597.22;;;31.29
12430;BMP280;6279;42.192;24.326;2023-06-26T06:10:41;98597.94;;;32.28
12430;BMP280;6279;42.192;24.326;2023-06-26T06:13:07;98601.63;;;32.90
12430;BMP280;6279;42.192;24.326;2023-06-26T06:15:32;98593.09;;;33.05
12430;BMP280;6279;42.192;24.326;2023-06-26T06:17:57;98585.97;;;33.08
12430;BMP280;6279;42.192;24.326;2023-06-26T06:20:23;98585.38;;;33.56
12430;BMP280;6279;42.192;24.326;2023-06-26T06:22:48;98586.28;;;33.69
12430;BMP280;6279;42.192;24.326;2023-06-26T06:25:14;98586.16;;;33.94
12430;BMP280;6279;42.192;24.326;2023-06-26T06:27:39;98580.38;;;33.75
12430;BMP280;6279;42.192;24.326;2023-06-26T06:30:05;98578.47;;;33.22
12430;BMP280;6279;42.192;24.326;2023-06-26T06:32:31;98574.88;;;33.10
12430;BMP280;6279;42.192;24.326;2023-06-26T06:34:56;98576.59;;;32.98
12430;BMP280;6279;42.192;24.326;2023-06-26T06:37:22;98572.00;;;33.15
12430;BMP280;6279;42.192;24.326;2023-06-26T06:39:47;98567.91;;;32.84
12430;BMP280;6279;42.192;24.326;2023-06-26T06:42:13;98572.81;;;32.65
12430;BMP280;6279;42.192;24.326;2023-06-26T06:44:38;98567.22;;;32.54
12430;BMP280;6279;42.192;24.326;2023-06-26T06:47:04;98560.25;;;33.19
12430;BMP280;6279;42.192;24.326;2023-06-26T06:49:29;98566.69;;;33.52
12430;BMP280;6279;42.192;24.326;2023-06-26T06:51:54;98576.63;;;33.59
12430;BMP280;6279;42.192;24.326;2023-06-26T06:54:20;98580.38;;;33.30
12430;BMP280;6279;42.192;24.326;2023-06-26T06:56:45;98591.69;;;32.74
12430;BMP280;6279;42.192;24.326;2023-06-26T06:59:11;98585.63;;;32.52
12430;BMP280;6279;42.192;24.326;2023-06-26T07:01:36;98582.31;;;31.83
12430;BMP280;6279;42.192;24.326;2023-06-26T07:04:02;98575.44;;;31.39
12430;BMP280;6279;42.192;24.326;2023-06-26T07:06:29;98578.66;;;31.20
12430;BMP280;6279;42.192;24.326;2023-06-26T07:08:54;98580.38;;;31.75
12430;BMP280;6279;42.192;24.326;2023-06-26T07:11:20;98578.22;;;32.74
12430;BMP280;6279;42.192;24.326;2023-06-26T07:13:45;98584.50;;;33.03
12430;BMP280;6279;42.192;24.326;2023-06-26T07:16:11;98578.47;;;33.30
12430;BMP280;6279;42.192;24.326;2023-06-26T07:18:38;98578.19;;;33.97
12430;BMP280;6279;42.192;24.326;2023-06-26T07:21:04;98587.53;;;34.08
12430;BMP280;6279;42.192;24.326;2023-06-26T07:23:29;98582.50;;;34.26
12430;BMP280;6279;42.192;24.326;2023-06-26T07:25:55;98578.09;;;34.22
12430;BMP280;6279;42.192;24.326;2023-06-26T07:28:20;98576.97;;;35.03
12430;BMP280;6279;42.192;24.326;2023-06-26T07:30:46;98586.00;;;35.94
12430;BMP280;6279;42.192;24.326;2023-06-26T07:33:12;98578.03;;;35.54
12430;BMP280;6279;42.192;24.326;2023-06-26T07:35:38;98587.88;;;34.75
12430;BMP280;6279;42.192;24.326;2023-06-26T07:38:03;98577.25;;;35.10
12430;BMP280;6279;42.192;24.326;2023-06-26T07:40:28;98578.03;;;35.54
12430;BMP280;6279;42.192;24.326;2023-06-26T07:42:54;98577.53;;;34.97
12430;BMP280;6279;42.192;24.326;2023-06-26T07:45:19;98582.53;;;34.46
12430;BMP280;6279;42.192;24.326;2023-06-26T07:47:45;98587.75;;;34.51
12430;BMP280;6279;42.192;24.326;2023-06-26T07:50:10;98572.97;;;35.21
12430;BMP280;6279;42.192;24.326;2023-06-26T07:52:36;98591.38;;;36.29
12430;BMP280;6279;42.192;24.326;2023-06-26T07:55:02;98577.34;;;37.43
12430;BMP280;6279;42.192;24.326;2023-06-26T07:57:29;98588.91;;;37.55
12430;BMP280;6279;42.192;24.326;2023-06-26T07:59:55;98583.78;;;37.81
12430;BMP280;6279;42.192;24.326;2023-06-26T08:02:21;98579.91;;;38.12
12430;BMP280;6279;42.192;24.326;2023-06-26T08:04:47;98588.13;;;39.20
12430;BMP280;6279;42.192;24.326;2023-06-26T08:07:12;98589.41;;;39.67
12430;BMP280;6279;42.192;24.326;2023-06-26T08:09:39;98590.50;;;39.84
12430;BMP280;6279;42.192;24.326;2023-06-26T08:12:04;98586.63;;;39.85
12430;BMP280;6279;42.192;24.326;2023-06-26T08:14:30;98586.56;;;39.60
12430;BMP280;6279;42.192;24.326;2023-06-26T08:16:56;98588.28;;;39.27
12430;BMP280;6279;42.192;24.326;2023-06-26T08:19:22;98592.78;;;38.83
12430;BMP280;6279;42.192;24.326;2023-06-26T08:21:47;98574.59;;;38.68
12430;BMP280;6279;42.192;24.326;2023-06-26T08:24:13;98584.94;;;38.44
12430;BMP280;6279;42.192;24.326;2023-06-26T08:26:41;98579.44;;;39.15
12430;BMP280;6279;42.192;24.326;2023-06-26T08:29:06;98584.63;;;40.84
12430;BMP280;6279;42.192;24.326;2023-06-26T08:31:35;98586.81;;;41.69
12430;BMP280;6279;42.192;24.326;2023-06-26T08:34:04;98581.66;;;42.59
12430;BMP280;6279;42.192;24.326;2023-06-26T08:36:30;98581.59;;;43.33
12430;BMP280;6279;42.192;24.326;2023-06-26T08:38:56;98576.59;;;44.06
12430;BMP280;6279;42.192;24.326;2023-06-26T08:41:22;98581.25;;;44.13
12430;BMP280;6279;42.192;24.326;2023-06-26T08:43:48;98580.41;;;43.30
12430;BMP280;6279;42.192;24.326;2023-06-26T08:46:15;98568.50;;;42.88
12430;BMP280;6279;42.192;24.326;2023-06-26T08:48:41;98566.78;;;43.68
12430;BMP280;6279;42.192;24.326;2023-06-26T08:51:11;98563.97;;;44.46
12430;BMP280;6279;42.192;24.326;2023-06-26T08:56:03;98546.81;;;45.83
12430;BMP280;6279;42.192;24.326;2023-06-26T08:58:29;98549.31;;;46.50
12430;BMP280;6279;42.192;24.326;2023-06-26T09:00:55;98548.75;;;46.95
12430;BMP280;6279;42.192;24.326;2023-06-26T09:03:21;98550.63;;;47.31
12430;BMP280;6279;42.192;24.326;2023-06-26T09:05:48;98541.44;;;47.14
12430;BMP280;6279;42.192;24.326;2023-06-26T09:08:13;98534.53;;;46.34
12430;BMP280;6279;42.192;24.326;2023-06-26T09:10:39;98548.75;;;45.30
12430;BMP280;6279;42.192;24.326;2023-06-26T09:13:05;98543.72;;;46.57
12430;BMP280;6279;42.192;24.326;2023-06-26T09:15:46;98541.44;;;47.66
12430;BMP280;6279;42.192;24.326;2023-06-26T09:18:13;98530.84;;;47.87
12430;BMP280;6279;42.192;24.326;2023-06-26T09:20:41;98531.28;;;48.50
12430;BMP280;6279;42.192;24.326;2023-06-26T09:23:08;98531.03;;;48.22
12430;BMP280;6279;42.192;24.326;2023-06-26T09:25:38;98526.81;;;48.94
12430;BMP280;6279;42.192;24.326;2023-06-26T09:28:04;98528.44;;;47.89
12430;BMP280;6279;42.192;24.326;2023-06-26T09:30:32;98527.03;;;47.82
12430;BMP280;6279;42.192;24.326;2023-06-26T09:32:57;98533.22;;;47.11
12430;BMP280;6279;42.192;24.326;2023-06-26T09:35:23;98529.94;;;47.19
12430;BMP280;6279;42.192;24.326;2023-06-26T09:37:50;98522.84;;;47.48
12430;BMP280;6279;42.192;24.326;2023-06-26T09:40:15;98524.75;;;47.25
12430;BMP280;6279;42.192;24.326;2023-06-26T09:42:41;98515.59;;;48.02
12430;BMP280;6279;42.192;24.326;2023-06-26T09:45:07;98525.94;;;48.97
12430;BMP280;6279;42.192;24.326;2023-06-26T09:47:34;98514.19;;;47.94
12430;BMP280;6279;42.192;24.326;2023-06-26T09:50:00;98514.13;;;47.98
12430;BMP280;6279;42.192;24.326;2023-06-26T09:52:27;98503.63;;;47.67
12430;BMP280;6279;42.192;24.326;2023-06-26T09:55:08;98506.03;;;47.13
12430;BMP280;6279;42.192;24.326;2023-06-26T09:57:34;98507.81;;;48.96
12430;BMP280;6279;42.192;24.326;2023-06-26T10:00:02;98506.84;;;49.56
12430;BMP280;6279;42.192;24.326;2023-06-26T10:02:28;98505.09;;;50.09
12430;BMP280;6279;42.192;24.326;2023-06-26T10:04:53;98496.81;;;49.12
12430;BMP280;6279;42.192;24.326;2023-06-26T10:07:20;98493.94;;;49.50
12430;BMP280;6279;42.192;24.326;2023-06-26T10:09:46;98497.28;;;48.91
12430;BMP280;6279;42.192;24.326;2023-06-26T10:12:23;98490.81;;;48.82
12430;BMP280;6279;42.192;24.326;2023-06-26T10:14:51;98495.75;;;48.52
12430;BMP280;6279;42.192;24.326;2023-06-26T10:17:19;98475.69;;;47.42
12430;BMP280;6279;42.192;24.326;2023-06-26T10:19:48;98484.13;;;47.06
12430;BMP280;6279;42.192;24.326;2023-06-26T10:22:17;98474.00;;;46.96
12430;BMP280;6279;42.192;24.326;2023-06-26T10:24:47;98476.16;;;46.82
12430;BMP280;6279;42.192;24.326;2023-06-26T10:27:17;98479.03;;;46.43
12430;BMP280;6279;42.192;24.326;2023-06-26T10:29:47;98476.28;;;46.43
12430;BMP280;6279;42.192;24.326;2023-06-26T10:32:14;98467.22;;;46.09
12430;BMP280;6279;42.192;24.326;2023-06-26T10:34:40;98460.66;;;45.97
12430;BMP280;6279;42.192;24.326;2023-06-26T10:37:06;98462.41;;;45.31
12430;BMP280;6279;42.192;24.326;2023-06-26T10:39:52;98463.78;;;45.02
12430;BMP280;6279;42.192;24.326;2023-06-26T10:42:20;98454.78;;;44.95
12430;BMP280;6279;42.192;24.326;2023-06-26T10:44:53;98450.19;;;45.38
12430;BMP280;6279;42.192;24.326;2023-06-26T10:49:55;98445.22;;;46.09
12430;BMP280;6279;42.192;24.326;2023-06-26T10:52:21;98443.75;;;45.55
12430;BMP280;6279;42.192;24.326;2023-06-26T10:54:46;98440.66;;;45.00
12430;BMP280;6279;42.192;24.326;2023-06-26T10:57:23;98446.22;;;44.90
12430;BMP280;6279;42.192;24.326;2023-06-26T10:59:48;98451.44;;;44.70
12430;BMP280;6279;42.192;24.326;2023-06-26T11:02:15;98452.56;;;44.76
12430;BMP280;6279;42.192;24.326;2023-06-26T11:04:45;98451.22;;;44.14
12430;BMP280;6279;42.192;24.326;2023-06-26T11:10:08;98458.72;;;43.48
12430;BMP280;6279;42.192;24.326;2023-06-26T11:15:18;98445.94;;;41.25
12430;BMP280;6279;42.192;24.326;2023-06-26T11:17:44;98438.97;;;40.92
12430;BMP280;6279;42.192;24.326;2023-06-26T11:20:11;98431.03;;;40.16
12430;BMP280;6279;42.192;24.326;2023-06-26T11:22:38;98438.34;;;39.83
12430;BMP280;6279;42.192;24.326;2023-06-26T11:25:05;98434.84;;;40.08
12430;BMP280;6279;42.192;24.326;2023-06-26T11:30:06;98445.44;;;40.45
12430;BMP280;6279;42.192;24.326;2023-06-26T11:32:32;98439.53;;;40.72
12430;BMP280;6279;42.192;24.326;2023-06-26T11:35:00;98430.41;;;40.93
12430;BMP280;6279;42.192;24.326;2023-06-26T11:37:26;98439.00;;;41.34
12430;BMP280;6279;42.192;24.326;2023-06-26T11:39:51;98438.31;;;41.05
12430;BMP280;6279;42.192;24.326;2023-06-26T11:42:18;98445.41;;;39.87
12430;BMP280;6279;42.192;24.326;2023-06-26T11:44:43;98435.66;;;38.17
12430;BMP280;6279;42.192;24.326;2023-06-26T11:47:14;98445.53;;;36.04
12430;BMP280;6279;42.192;24.326;2023-06-26T11:49:45;98448.69;;;35.01
12430;BMP280;6279;42.192;24.326;2023-06-26T11:52:11;98435.41;;;32.82
12430;BMP280;6279;42.192;24.326;2023-06-26T11:54:37;98446.25;;;32.16
12430;BMP280;6279;42.192;24.326;2023-06-26T11:57:04;98434.47;;;31.62
12430;BMP280;6279;42.192;24.326;2023-06-26T11:59:34;98439.75;;;32.00
12430;BMP280;6279;42.192;24.326;2023-06-26T12:02:00;98445.72;;;31.64
12430;BMP280;6279;42.192;24.326;2023-06-26T12:04:29;98442.44;;;31.67
12430;BMP280;6279;42.192;24.326;2023-06-26T12:06:55;98441.06;;;31.39
12430;BMP280;6279;42.192;24.326;2023-06-26T12:09:24;98443.84;;;31.18
12430;BMP280;6279;42.192;24.326;2023-06-26T12:11:53;98437.44;;;31.52
12430;BMP280;6279;42.192;24.326;2023-06-26T12:14:20;98438.03;;;32.12
12430;BMP280;6279;42.192;24.326;2023-06-26T12:16:46;98435.16;;;31.75
12430;BMP280;6279;42.192;24.326;2023-06-26T12:19:12;98439.53;;;31.55
12430;BMP280;6279;42.192;24.326;2023-06-26T12:24:04;98427.59;;;32.11
12430;BMP280;6279;42.192;24.326;2023-06-26T12:26:30;98422.19;;;32.27
12430;BMP280;6279;42.192;24.326;2023-06-26T12:29:09;98428.81;;;32.46
12430;BMP280;6279;42.192;24.326;2023-06-26T12:31:42;98439.41;;;32.51
12430;BMP280;6279;42.192;24.326;2023-06-26T12:34:10;98433.97;;;32.93
12430;BMP280;6279;42.192;24.326;2023-06-26T12:36:44;98447.44;;;32.93
12430;BMP280;6279;42.192;24.326;2023-06-26T12:39:11;98450.38;;;32.38
12430;BMP280;6279;42.192;24.326;2023-06-26T12:41:53;98446.41;;;31.86
12430;BMP280;6279;42.192;24.326;2023-06-26T12:44:27;98452.69;;;31.27
12430;BMP280;6279;42.192;24.326;2023-06-26T12:47:00;98443.03;;;30.87
12430;BMP280;6279;42.192;24.326;2023-06-26T12:49:40;98441.19;;;30.96
12430;BMP280;6279;42.192;24.326;2023-06-26T12:52:08;98441.13;;;30.58
12430;BMP280;6279;42.192;24.326;2023-06-26T12:54:34;98443.78;;;30.80
12430;BMP280;6279;42.192;24.326;2023-06-26T12:57:00;98439.03;;;30.55
12430;BMP280;6279;42.192;24.326;2023-06-26T12:59:25;98448.09;;;30.59
12430;BMP280;6279;42.192;24.326;2023-06-26T13:01:51;98438.88;;;30.52
12430;BMP280;6279;42.192;24.326;2023-06-26T13:04:16;98443.91;;;30.32
12430;BMP280;6279;42.192;24.326;2023-06-26T13:06:42;98444.75;;;30.19
12430;BMP280;6279;42.192;24.326;2023-06-26T13:09:07;98448.03;;;29.81
12430;BMP280;6279;42.192;24.326;2023-06-26T13:11:33;98444.09;;;29.66
12430;BMP280;6279;42.192;24.326;2023-06-26T13:14:00;98451.72;;;28.30
12430;BMP280;6279;42.192;24.326;2023-06-26T13:16:25;98465.19;;;26.46
12430;BMP280;6279;42.192;24.326;2023-06-26T13:18:50;98475.47;;;25.15
12430;BMP280;6279;42.192;24.326;2023-06-26T13:21:16;98487.81;;;24.38
12430;BMP280;6279;42.192;24.326;2023-06-26T13:23:43;98494.63;;;23.95
12430;BMP280;6279;42.192;24.326;2023-06-26T13:26:08;98508.88;;;23.60
12430;BMP280;6279;42.192;24.326;2023-06-26T13:28:34;98524.38;;;23.27
12430;BMP280;6279;42.192;24.326;2023-06-26T13:31:00;98519.69;;;22.98
12430;BMP280;6279;42.192;24.326;2023-06-26T13:33:25;98527.13;;;23.01
12430;BMP280;6279;42.192;24.326;2023-06-26T13:35:54;98533.31;;;23.16
12430;BMP280;6279;42.192;24.326;2023-06-26T13:38:23;98537.25;;;23.09
12430;BMP280;6279;42.192;24.326;2023-06-26T13:40:54;98538.09;;;22.74
12430;BMP280;6279;42.192;24.326;2023-06-26T13:43:24;98548.47;;;22.80
12430;BMP280;6279;42.192;24.326;2023-06-26T13:45:50;98545.66;;;22.65
12430;BMP280;6279;42.192;24.326;2023-06-26T13:48:15;98548.03;;;22.62
12430;BMP280;6279;42.192;24.326;2023-06-26T13:50:41;98558.81;;;23.22
12430;BMP280;6279;42.192;24.326;2023-06-26T13:53:06;98559.34;;;23.65
12430;BMP280;6279;42.192;24.326;2023-06-26T13:55:33;98543.06;;;24.17
12430;BMP280;6279;42.192;24.326;2023-06-26T13:57:58;98546.84;;;24.55
12430;BMP280;6279;42.192;24.326;2023-06-26T14:00:24;98539.94;;;24.68
12430;BMP280;6279;42.192;24.326;2023-06-26T14:02:50;98535.16;;;24.90
12430;BMP280;6279;42.192;24.326;2023-06-26T14:05:16;98542.84;;;25.01
12430;BMP280;6279;42.192;24.326;2023-06-26T14:07:46;98540.94;;;25.16
12430;BMP280;6279;42.192;24.326;2023-06-26T14:10:12;98542.53;;;25.27
12430;BMP280;6279;42.192;24.326;2023-06-26T14:12:37;98540.78;;;25.70
12430;BMP280;6279;42.192;24.326;2023-06-26T14:15:03;98529.34;;;26.22
12430;BMP280;6279;42.192;24.326;2023-06-26T14:17:29;98544.00;;;26.62
12430;BMP280;6279;42.192;24.326;2023-06-26T14:19:54;98558.72;;;26.60
12430;BMP280;6279;42.192;24.326;2023-06-26T14:22:20;98564.47;;;26.34
12430;BMP280;6279;42.192;24.326;2023-06-26T14:24:46;98575.56;;;26.03
12430;BMP280;6279;42.192;24.326;2023-06-26T14:27:11;98595.22;;;25.20
12430;BMP280;6279;42.192;24.326;2023-06-26T14:29:37;98596.75;;;24.28
12430;BMP280;6279;42.192;24.326;2023-06-26T14:32:03;98601.59;;;23.71
12430;BMP280;6279;42.192;24.326;2023-06-26T14:34:28;98605.50;;;23.23